M I D A S
Marine Information and Data Acquisition System
Tripno 2124 of the Zeeleeuw from 2011-06-20 06:51:14 to 2011-06-20 15:03:38
Back to CruiseResearch ActivitiesStationsMapUnderway DataData graphs

EquipmentUnitsComment
TimeDGPSUTC
LatitudeDGPSDM.mWGS84
LongitudeDGPSDM.mWGS84
HeadingGyrodeg 
SOGDGPSknotsSpeed over ground
COGDGPSdegCourse over ground
DepthEcho soundermeters200 kHz
Missing or incorrect values are displayed as -999
Navigation data collected by the RV Zeeleeuw from 2011-06-20 06:51:25 to 2011-06-20 15:51:21
                                                                                    Next 1000 lines
Time Latitude Longitude Heading SOG COG Depth
2011-06-20 06:51:35 51°13.636 2°56.012 111.4 1.5 289 7.8
2011-06-20 06:51:40 51°13.638 2°56.008 111.4 1.8 291 8.1
2011-06-20 06:51:44 51°13.638 2°56.004 112.2 2.3 290 8.1
2011-06-20 06:51:49 51°13.64 2°55.998 112.9 2.7 293 -999
2011-06-20 06:51:56 51°13.642 2°55.989 113.7 3.1 292 -999
2011-06-20 06:52:01 51°13.644 2°55.982 114 3.5 294 -999
2011-06-20 06:52:07 51°13.647 2°55.973 114.1 3.9 294 -999
2011-06-20 06:52:12 51°13.649 2°55.965 114.1 4.2 295 -999
2011-06-20 06:52:18 51°13.652 2°55.954 114.3 4.5 294 -999
2011-06-20 06:52:23 51°13.655 2°55.944 114.4 4.8 294 -999
2011-06-20 06:52:28 51°13.658 2°55.934 114.1 5 293 -999
2011-06-20 06:52:32 51°13.66 2°55.926 114 5.1 294 -999
2011-06-20 06:52:38 51°13.664 2°55.913 113.9 5.2 293 -999
2011-06-20 06:52:43 51°13.667 2°55.902 113.8 5.3 294 -999
2011-06-20 06:52:48 51°13.669 2°55.892 113.9 5.1 293 -999
2011-06-20 06:52:53 51°13.672 2°55.881 113.9 4.9 293 -999
2011-06-20 06:52:58 51°13.674 2°55.872 113.3 4.8 292 -999
2011-06-20 06:53:03 51°13.677 2°55.863 112.5 4.6 292 -999
2011-06-20 06:53:08 51°13.679 2°55.854 111.5 4.4 291 -999
2011-06-20 06:53:13 51°13.681 2°55.845 110.5 4.2 291 -999
2011-06-20 06:53:18 51°13.683 2°55.836 109.4 4 290 -999
2011-06-20 06:53:23 51°13.685 2°55.828 108.2 3.9 289 -999
2011-06-20 06:53:28 51°13.686 2°55.821 106.8 3.8 288 -999
2011-06-20 06:53:32 51°13.687 2°55.814 105.8 3.7 288 11.2
2011-06-20 06:53:37 51°13.689 2°55.806 104.8 3.6 287 11.4
2011-06-20 06:53:42 51°13.69 2°55.799 103.3 3.6 285 11.6
2011-06-20 06:53:48 51°13.692 2°55.79 101.7 3.5 283 -999
2011-06-20 06:53:52 51°13.692 2°55.784 99.6 3.5 282 11.8
2011-06-20 06:53:58 51°13.694 2°55.775 97.7 3.4 281 -999
2011-06-20 06:54:03 51°13.695 2°55.768 95.1 3.3 279 -999
2011-06-20 06:54:08 51°13.695 2°55.761 92.3 3.1 277 -999
2011-06-20 06:54:12 51°13.696 2°55.755 90 3.1 276 -999
2011-06-20 06:54:18 51°13.696 2°55.748 87.8 2.8 274 -999
2011-06-20 06:54:23 51°13.696 2°55.743 85.7 2.3 273 -999
2011-06-20 06:54:28 51°13.696 2°55.739 82.9 1.6 272 -999
2011-06-20 06:54:32 51°13.696 2°55.737 79.8 1 284 12.7
2011-06-20 06:54:37 51°13.696 2°55.737 76 0.4 299 12.6
2011-06-20 06:54:42 51°13.697 2°55.736 71.4 0.5 330 12.7
2011-06-20 06:54:47 51°13.697 2°55.736 65.4 0.4 5 12.6
2011-06-20 06:54:52 51°13.698 2°55.736 61.1 0.6 10 12.8
2011-06-20 06:54:56 51°13.699 2°55.737 54.6 0.8 21 12.7
2011-06-20 06:55:01 51°13.7 2°55.737 49.4 0.9 20 13.1
2011-06-20 06:55:06 51°13.701 2°55.738 45.1 1 20 12.7
2011-06-20 06:55:11 51°13.703 2°55.739 38.9 1.1 18 12.8
2011-06-20 06:55:16 51°13.704 2°55.74 34 1.2 16 12.6
2011-06-20 06:55:20 51°13.706 2°55.74 30.3 1.3 13 12.4
2011-06-20 06:55:25 51°13.708 2°55.741 25 1.4 9 12.6
2011-06-20 06:55:30 51°13.71 2°55.741 20.7 1.3 10 12.6
2011-06-20 06:55:35 51°13.711 2°55.741 17.5 1 359 12.5
2011-06-20 06:55:40 51°13.712 2°55.741 13.9 0.5 353 12.5
2011-06-20 06:55:44 51°13.712 2°55.741 10.6 0.1 252 12.5
2011-06-20 06:55:49 51°13.711 2°55.741 7.2 0.7 201 12.5
2011-06-20 06:55:55 51°13.709 2°55.74 4.7 1.1 183 12.5
2011-06-20 06:55:59 51°13.708 2°55.74 1.9 1.4 187 12.6
2011-06-20 06:56:04 51°13.706 2°55.74 0.1 1.3 178 5.8
2011-06-20 06:56:10 51°13.704 2°55.74 358.9 1.2 183 -999
2011-06-20 06:56:16 51°13.703 2°55.74 357.8 0.7 175 -999
2011-06-20 06:56:21 51°13.703 2°55.74 356.4 0.3 216 -999
2011-06-20 06:56:27 51°13.703 2°55.739 353.3 0.3 340 -999
2011-06-20 06:56:32 51°13.703 2°55.739 349.6 0.6 333 -999
2011-06-20 06:56:38 51°13.705 2°55.738 344 1.1 337 -999
2011-06-20 06:56:43 51°13.707 2°55.736 339.8 1.8 334 4.8
2011-06-20 06:56:48 51°13.711 2°55.734 337 2.6 334 4.9
2011-06-20 06:56:52 51°13.714 2°55.731 334.8 3.4 331 4.9
2011-06-20 06:56:58 51°13.72 2°55.725 333.6 4.3 331 -999
2011-06-20 06:57:03 51°13.726 2°55.719 332.9 5.1 331 12.2
2011-06-20 06:57:08 51°13.733 2°55.713 332.6 5.8 331 12
2011-06-20 06:57:12 51°13.74 2°55.707 332.6 6.4 331 11.4
2011-06-20 06:57:17 51°13.748 2°55.7 332.4 7 331 11.3
2011-06-20 06:57:22 51°13.758 2°55.692 332.6 7.6 332 -999
2011-06-20 06:57:27 51°13.767 2°55.684 333.3 8 333 -999
2011-06-20 06:57:32 51°13.778 2°55.676 334.1 8.4 333 11.5
2011-06-20 06:57:37 51°13.789 2°55.667 334.2 8.8 332 -999
2011-06-20 06:57:42 51°13.8 2°55.658 335.1 9.2 334 11.3
2011-06-20 06:57:48 51°13.814 2°55.647 335.4 9.5 332 -999
2011-06-20 06:57:52 51°13.824 2°55.639 334.9 9.8 334 11.1
2011-06-20 06:57:58 51°13.839 2°55.627 335.1 10 334 -999
2011-06-20 06:58:03 51°13.851 2°55.618 335.8 10.1 335 11
2011-06-20 06:58:08 51°13.864 2°55.607 336.2 10.3 334 11.7
2011-06-20 06:58:12 51°13.875 2°55.6 336.5 10.4 336 11.1
2011-06-20 06:58:17 51°13.888 2°55.59 337.1 10.5 335 11.2
2011-06-20 06:58:22 51°13.902 2°55.58 337.2 10.6 335 11.2
2011-06-20 06:58:28 51°13.917 2°55.568 336.1 10.7 334 11.2
2011-06-20 06:58:32 51°13.929 2°55.56 336.1 10.9 336 11.2
2011-06-20 06:58:38 51°13.945 2°55.547 337.1 11 335 -999
2011-06-20 06:58:43 51°13.959 2°55.536 336.9 11 335 -999
2011-06-20 06:58:48 51°13.973 2°55.526 336.9 11 336 -999
2011-06-20 06:58:52 51°13.984 2°55.518 337.6 11.1 335 -999
2011-06-20 06:58:58 51°14.001 2°55.505 337.6 11.2 335 -999
2011-06-20 06:59:03 51°14.015 2°55.495 337.6 11.2 336 -999
2011-06-20 06:59:08 51°14.029 2°55.485 337.6 11.2 335 -999
2011-06-20 06:59:12 51°14.04 2°55.476 337.6 11.3 336 -999
2011-06-20 06:59:18 51°14.057 2°55.464 338 11.3 335 -999
2011-06-20 06:59:22 51°14.069 2°55.455 337.4 11.3 335 -999
2011-06-20 06:59:28 51°14.086 2°55.443 337.5 11.4 335 11.2
2011-06-20 06:59:32 51°14.097 2°55.434 337.6 11.4 334 11.1
2011-06-20 06:59:37 51°14.112 2°55.423 336.9 11.4 334 11.2
2011-06-20 06:59:42 51°14.126 2°55.412 336.4 11.4 334 11.1
2011-06-20 06:59:47 51°14.14 2°55.401 336.4 11.4 333 11.1
2011-06-20 06:59:52 51°14.154 2°55.39 336.1 11.4 334 11
2011-06-20 06:59:56 51°14.166 2°55.381 336.1 11.4 332 11
2011-06-20 07:00:01 51°14.18 2°55.369 335 11.4 332 -999
2011-06-20 07:00:06 51°14.194 2°55.357 334.7 11.4 332 11
2011-06-20 07:00:11 51°14.208 2°55.345 334.3 11.4 331 11
2011-06-20 07:00:16 51°14.221 2°55.333 333.7 11.4 331 11
2011-06-20 07:00:21 51°14.235 2°55.321 333.6 11.5 331 11
2011-06-20 07:00:26 51°14.249 2°55.308 333.4 11.5 330 10.9
2011-06-20 07:00:31 51°14.263 2°55.296 332.6 11.6 331 11
2011-06-20 07:00:36 51°14.277 2°55.283 332.9 11.6 331 11
2011-06-20 07:00:40 51°14.288 2°55.273 333.2 11.7 330 10.9
2011-06-20 07:00:45 51°14.302 2°55.26 333 11.7 330 10.8
2011-06-20 07:00:50 51°14.316 2°55.247 332.1 11.8 327 -999
2011-06-20 07:00:56 51°14.333 2°55.23 330.3 11.9 328 10.8
2011-06-20 07:01:00 51°14.344 2°55.219 330.4 11.8 329 10.9
2011-06-20 07:01:05 51°14.358 2°55.206 330.8 11.8 329 10.8
2011-06-20 07:01:09 51°14.37 2°55.195 331.8 11.8 330 10.8
2011-06-20 07:01:14 51°14.384 2°55.182 332.2 11.9 329 10.5
2011-06-20 07:01:20 51°14.401 2°55.166 332.1 11.9 330 10.6
2011-06-20 07:01:24 51°14.412 2°55.155 332.1 11.9 329 10.9
2011-06-20 07:01:28 51°14.424 2°55.144 331.1 11.8 328 10.9
2011-06-20 07:01:34 51°14.44 2°55.127 330.6 11.8 329 10.6
2011-06-20 07:01:40 51°14.457 2°55.111 330.5 11.8 328 10.8
2011-06-20 07:01:44 51°14.468 2°55.1 330.4 11.9 329 11.2
2011-06-20 07:01:49 51°14.482 2°55.086 331.2 12 329 11.2
2011-06-20 07:01:55 51°14.499 2°55.069 330.5 12 327 11.1
2011-06-20 07:01:59 51°14.51 2°55.057 329.1 12.1 326 11.3
2011-06-20 07:02:04 51°14.524 2°55.042 328.5 12.1 326 11.7
2011-06-20 07:02:09 51°14.538 2°55.027 328.8 12.1 327 12.2
2011-06-20 07:02:14 51°14.552 2°55.012 329.3 12.3 323 12.4
2011-06-20 07:02:20 51°14.568 2°54.99 327.3 12.5 319 12.3
2011-06-20 07:02:24 51°14.579 2°54.976 326 12.5 319 12.1
2011-06-20 07:02:29 51°14.592 2°54.957 325.9 12.6 320 12.3
2011-06-20 07:02:34 51°14.606 2°54.941 327.9 12.7 323 12.4
2011-06-20 07:02:40 51°14.623 2°54.919 329.5 12.8 322 12.4
2011-06-20 07:02:44 51°14.634 2°54.906 329.9 12.8 323 12.2
2011-06-20 07:02:49 51°14.648 2°54.888 330 13 322 12.8
2011-06-20 07:02:54 51°14.663 2°54.871 329.2 13 323 12.3
2011-06-20 07:03:00 51°14.68 2°54.85 329 13 323 12.2
2011-06-20 07:03:04 51°14.692 2°54.837 329.3 13.1 323 11.6
2011-06-20 07:03:08 51°14.704 2°54.823 329.3 13.1 324 11.8
2011-06-20 07:03:14 51°14.721 2°54.803 329.4 13.1 325 12.5
2011-06-20 07:03:20 51°14.739 2°54.783 329.6 13.1 324 12.1
2011-06-20 07:03:24 51°14.751 2°54.769 329.2 13.1 324 12.1
2011-06-20 07:03:29 51°14.766 2°54.752 328.6 13.2 324 12.6
2011-06-20 07:03:34 51°14.78 2°54.734 327.6 13.3 323 12.6
2011-06-20 07:03:40 51°14.798 2°54.714 327.8 13.2 325 12.1
2011-06-20 07:03:44 51°14.811 2°54.701 329.6 13.3 326 12.6
2011-06-20 07:03:49 51°14.826 2°54.684 330.3 13.3 326 12.6
2011-06-20 07:03:54 51°14.841 2°54.668 330.3 13.3 327 13.1
2011-06-20 07:04:00 51°14.859 2°54.648 329.7 13.3 325 13.1
2011-06-20 07:04:04 51°14.871 2°54.635 328.9 13.3 326 12.7
2011-06-20 07:04:09 51°14.886 2°54.618 328.2 13.3 324 12.9
2011-06-20 07:04:14 51°14.901 2°54.601 327.6 13.3 325 13.3
2011-06-20 07:04:19 51°14.917 2°54.585 328.3 13.2 326 13.2
2011-06-20 07:04:24 51°14.932 2°54.568 329.2 13.1 326 12.1
2011-06-20 07:04:29 51°14.947 2°54.552 329.5 13.1 326 12.6
2011-06-20 07:04:34 51°14.962 2°54.536 329.6 13.2 326 12.9
2011-06-20 07:04:40 51°14.98 2°54.516 328.8 13.2 324 12.6
2011-06-20 07:04:44 51°14.992 2°54.502 327.4 13.2 324 12.8
2011-06-20 07:04:49 51°15.007 2°54.485 326.7 13.2 323 12.4
2011-06-20 07:04:54 51°15.021 2°54.467 325.9 13.2 323 12.8
2011-06-20 07:05:00 51°15.039 2°54.446 325.8 13.3 323 12.5
2011-06-20 07:05:04 51°15.051 2°54.432 325.6 13.2 324 12.5
2011-06-20 07:05:08 51°15.063 2°54.419 325.9 13.2 326 12.2
2011-06-20 07:05:14 51°15.082 2°54.401 329.3 13.3 330 12.6
2011-06-20 07:05:20 51°15.102 2°54.384 332.7 13.3 332 11.9
2011-06-20 07:05:24 51°15.115 2°54.374 335.2 13.2 334 12.3
2011-06-20 07:05:29 51°15.131 2°54.361 337.1 13.2 335 12.1
2011-06-20 07:05:35 51°15.151 2°54.348 338.8 13.1 338 11
2011-06-20 07:05:40 51°15.168 2°54.338 340.6 13 340 9.9
2011-06-20 07:05:44 51°15.182 2°54.332 344.1 12.9 344 9.8
2011-06-20 07:05:49 51°15.199 2°54.324 347 12.9 345 10
2011-06-20 07:05:54 51°15.217 2°54.318 349.3 12.9 349 10
2011-06-20 07:06:00 51°15.238 2°54.313 351.9 12.9 350 9.5
2011-06-20 07:06:04 51°15.252 2°54.31 353.6 12.8 353 9.6
2011-06-20 07:06:09 51°15.27 2°54.308 355.8 12.9 354 9.7
2011-06-20 07:06:15 51°15.292 2°54.305 357.2 13 356 9.4
2011-06-20 07:06:19 51°15.306 2°54.304 359.1 12.9 357 9.5
2011-06-20 07:06:24 51°15.324 2°54.302 -999 12.9 358 9.5
2011-06-20 07:06:29 51°15.342 2°54.301 1.1 13 358 9.6
2011-06-20 07:06:35 51°15.363 2°54.3 1.7 12.9 359 9.5
2011-06-20 07:06:39 51°15.378 2°54.3 2.8 12.9 -999 9.7
2011-06-20 07:06:44 51°15.396 2°54.301 4.1 13 1 10
2011-06-20 07:06:49 51°15.414 2°54.301 4.8 13 1 9.7
2011-06-20 07:06:55 51°15.435 2°54.302 5 12.9 2 9.8
2011-06-20 07:06:59 51°15.45 2°54.303 5.8 12.9 2 10
2011-06-20 07:07:04 51°15.468 2°54.304 6 12.9 2 9.7
2011-06-20 07:07:09 51°15.485 2°54.305 6.3 12.9 2 10.1
2011-06-20 07:07:14 51°15.503 2°54.305 5.4 12.9 -999 10.1
2011-06-20 07:07:20 51°15.525 2°54.305 4.7 12.8 -999 9.8
2011-06-20 07:07:24 51°15.539 2°54.305 4 12.9 359 10
2011-06-20 07:07:28 51°15.554 2°54.304 3 12.9 358 10.2
2011-06-20 07:07:34 51°15.575 2°54.302 2.3 12.9 358 10.5
2011-06-20 07:07:40 51°15.597 2°54.301 1.6 12.9 358 10.4
2011-06-20 07:07:44 51°15.611 2°54.3 1.8 12.9 358 10.4
2011-06-20 07:07:48 51°15.625 2°54.299 1.9 13 358 10.4
2011-06-20 07:07:55 51°15.65 2°54.298 2 12.9 358 10.2
2011-06-20 07:08:00 51°15.668 2°54.297 2.5 13 359 10.4
2011-06-20 07:08:04 51°15.683 2°54.297 3 13 359 10.4
2011-06-20 07:08:09 51°15.701 2°54.297 3.6 13 -999 10.6
2011-06-20 07:08:14 51°15.719 2°54.297 3.8 13 359 10.4
2011-06-20 07:08:20 51°15.74 2°54.297 3.8 12.9 -999 10.3
2011-06-20 07:08:24 51°15.755 2°54.297 4.2 13 -999 10.3
2011-06-20 07:08:28 51°15.769 2°54.296 3.6 12.9 358 10.4
2011-06-20 07:08:34 51°15.79 2°54.294 2.4 12.9 357 10.9
2011-06-20 07:08:40 51°15.812 2°54.293 1.5 12.9 357 11
2011-06-20 07:08:44 51°15.826 2°54.291 0.8 12.9 355 10.7
2011-06-20 07:08:49 51°15.844 2°54.289 359.7 12.9 355 10.7
2011-06-20 07:08:55 51°15.865 2°54.285 358.7 12.8 354 10.8
2011-06-20 07:08:59 51°15.879 2°54.283 358.3 12.8 354 11
2011-06-20 07:09:04 51°15.897 2°54.279 357.8 12.7 353 10.7
2011-06-20 07:09:09 51°15.914 2°54.277 357.7 12.5 354 10.8
2011-06-20 07:09:15 51°15.934 2°54.273 357.6 12.4 354 10.7
2011-06-20 07:09:19 51°15.948 2°54.271 357.9 12.2 354 10.9
2011-06-20 07:09:24 51°15.964 2°54.269 358.9 11.8 355 10.6
2011-06-20 07:09:29 51°15.98 2°54.267 0.5 11.1 357 11
2011-06-20 07:09:35 51°15.997 2°54.267 1.8 10.7 359 11.1
2011-06-20 07:09:39 51°16.009 2°54.267 3.3 10.2 1 11.1
2011-06-20 07:09:44 51°16.022 2°54.268 5.5 9.8 2 10.7
2011-06-20 07:09:49 51°16.035 2°54.269 7.7 9.1 4 11
2011-06-20 07:09:55 51°16.049 2°54.271 9.6 8.7 6 11.1
2011-06-20 07:09:59 51°16.058 2°54.273 11.4 8.2 7 11.2
2011-06-20 07:10:04 51°16.069 2°54.275 13.2 7.9 8 11.2
2011-06-20 07:10:09 51°16.08 2°54.278 14.6 7.6 9 11.3
2011-06-20 07:10:14 51°16.089 2°54.281 15.5 7.2 10 11
2011-06-20 07:10:20 51°16.101 2°54.284 16.4 6.9 10 11.1
2011-06-20 07:10:24 51°16.108 2°54.287 17 6.6 12 11.4
2011-06-20 07:10:28 51°16.115 2°54.289 17.6 6.4 11 11.5
2011-06-20 07:10:34 51°16.125 2°54.292 18 6.1 12 11.3
2011-06-20 07:10:40 51°16.135 2°54.295 18.3 5.9 11 11.2
2011-06-20 07:10:44 51°16.141 2°54.297 18.3 5.7 12 11.3
2011-06-20 07:10:48 51°16.147 2°54.299 18.2 5.5 11 11.3
2011-06-20 07:10:54 51°16.155 2°54.302 17.8 5.2 10 11.2
2011-06-20 07:10:59 51°16.162 2°54.304 17.4 5 9 11.2
2011-06-20 07:11:04 51°16.169 2°54.306 16.8 4.8 9 11.3
2011-06-20 07:11:08 51°16.174 2°54.307 16.1 4.6 7 11.3
2011-06-20 07:11:14 51°16.182 2°54.308 15.4 4.4 7 11.3
2011-06-20 07:11:20 51°16.189 2°54.309 14.5 4.2 5 11.1
2011-06-20 07:11:24 51°16.193 2°54.31 13.7 4.2 5 11.3
2011-06-20 07:11:28 51°16.198 2°54.31 12.8 4.1 4 11.6
2011-06-20 07:11:34 51°16.204 2°54.311 11.9 3.8 3 11.5
2011-06-20 07:11:40 51°16.211 2°54.311 10.9 3.7 -999 11.3
2011-06-20 07:11:44 51°16.215 2°54.312 10.1 3.7 1 11.1
2011-06-20 07:11:48 51°16.219 2°54.311 9.1 3.5 359 11.2
2011-06-20 07:11:54 51°16.224 2°54.311 8.1 3.3 357 11.5
2011-06-20 07:12:00 51°16.229 2°54.311 6.6 3.2 357 11.6
2011-06-20 07:12:04 51°16.233 2°54.31 5.8 3 354 11.6
2011-06-20 07:12:10 51°16.238 2°54.309 3.9 2.9 351 11.5
2011-06-20 07:12:15 51°16.241 2°54.308 2.3 2.7 350 11.4
2011-06-20 07:12:20 51°16.245 2°54.306 0.5 2.5 346 11.5
2011-06-20 07:12:24 51°16.247 2°54.305 358.4 2.2 344 11.6
2011-06-20 07:12:28 51°16.249 2°54.304 355.7 1.9 336 11.5
2011-06-20 07:12:35 51°16.252 2°54.302 352.2 1.6 333 11.4
2011-06-20 07:12:40 51°16.253 2°54.3 349.2 1.3 324 11.6
2011-06-20 07:12:44 51°16.254 2°54.298 344.8 1.1 317 11.6
2011-06-20 07:12:48 51°16.254 2°54.296 341.4 0.8 308 11.4
2011-06-20 07:12:54 51°16.255 2°54.295 338.8 0.7 299 11.4
2011-06-20 07:13:00 51°16.255 2°54.293 335.1 0.6 283 11.5
2011-06-20 07:13:04 51°16.255 2°54.293 333 0.4 267 11.5
2011-06-20 07:13:08 51°16.255 2°54.292 331.9 0.4 245 11.5
2011-06-20 07:13:14 51°16.255 2°54.291 331.6 0.4 235 11.4
2011-06-20 07:13:19 51°16.254 2°54.29 331.8 0.4 229 11.4
2011-06-20 07:13:24 51°16.254 2°54.29 332.4 0.4 226 11.5
2011-06-20 07:13:28 51°16.254 2°54.289 333.5 0.4 231 11.4
2011-06-20 07:13:34 51°16.253 2°54.288 334.2 0.4 236 11.4
2011-06-20 07:13:40 51°16.253 2°54.287 334.9 0.4 231 11.2
2011-06-20 07:13:44 51°16.253 2°54.287 336.4 0.4 238 11.1
2011-06-20 07:13:49 51°16.252 2°54.286 337 0.5 238 11.4
2011-06-20 07:13:54 51°16.252 2°54.285 337.8 0.3 232 11.5
2011-06-20 07:14:00 51°16.252 2°54.285 338.5 0.4 234 11.4
2011-06-20 07:14:04 51°16.252 2°54.285 339.1 0.5 236 -999
2011-06-20 07:14:10 51°16.252 2°54.284 340.2 0.5 240 4.8
2011-06-20 07:14:15 51°16.251 2°54.282 341 0.5 244 -999
2011-06-20 07:14:20 51°16.251 2°54.282 341.4 0.5 247 4.9
2011-06-20 07:14:24 51°16.251 2°54.281 341.9 0.5 245 4.8
2011-06-20 07:14:29 51°16.251 2°54.28 342.2 0.5 250 4.9
2011-06-20 07:14:35 51°16.25 2°54.279 342.6 0.5 255 4.9
2011-06-20 07:14:40 51°16.25 2°54.277 343.2 0.4 257 5
2011-06-20 07:14:44 51°16.25 2°54.276 343.6 0.4 249 4.9
2011-06-20 07:14:49 51°16.25 2°54.275 344.1 0.6 252 11.3
2011-06-20 07:14:55 51°16.249 2°54.273 344.8 0.4 251 11.4
2011-06-20 07:15:00 51°16.249 2°54.272 345.3 0.5 255 11.5
2011-06-20 07:15:04 51°16.249 2°54.272 345.7 0.5 255 11.3
2011-06-20 07:15:08 51°16.249 2°54.271 346.3 0.5 259 11.3
2011-06-20 07:15:14 51°16.249 2°54.27 346.7 0.5 256 11.3
2011-06-20 07:15:20 51°16.249 2°54.268 347.4 0.5 261 11.3
2011-06-20 07:15:24 51°16.248 2°54.267 347.7 0.5 260 11.5
2011-06-20 07:15:29 51°16.248 2°54.266 348.1 0.5 261 11.5
2011-06-20 07:15:35 51°16.248 2°54.264 348.6 0.5 265 11.4
2011-06-20 07:15:39 51°16.248 2°54.263 349.2 0.5 267 11.4
2011-06-20 07:15:44 51°16.248 2°54.262 349.5 0.6 264 11.4
2011-06-20 07:15:49 51°16.248 2°54.261 350.1 0.5 272 11.4
2011-06-20 07:15:55 51°16.248 2°54.261 350.6 0.5 272 11.5
2011-06-20 07:15:59 51°16.248 2°54.26 351.1 0.5 270 11.6
2011-06-20 07:16:04 51°16.248 2°54.259 351.8 0.5 265 11.6
2011-06-20 07:16:09 51°16.248 2°54.258 352.1 0.5 273 11.5
2011-06-20 07:16:15 51°16.248 2°54.257 352.8 0.5 265 11.5
2011-06-20 07:16:19 51°16.248 2°54.256 353.4 0.5 266 11.4
2011-06-20 07:16:24 51°16.248 2°54.255 353.9 0.5 268 11.4
2011-06-20 07:16:29 51°16.248 2°54.254 354.4 0.6 268 11.4
2011-06-20 07:16:35 51°16.248 2°54.252 355.2 0.5 270 11.3
2011-06-20 07:16:39 51°16.248 2°54.251 355.9 0.5 275 11.4
2011-06-20 07:16:44 51°16.248 2°54.25 356.2 0.6 277 11.4
2011-06-20 07:16:49 51°16.248 2°54.249 357 0.5 277 11.5
2011-06-20 07:16:55 51°16.248 2°54.247 357.9 0.5 276 11.7
2011-06-20 07:16:59 51°16.248 2°54.246 358.5 0.6 275 11.3
2011-06-20 07:17:04 51°16.249 2°54.245 359.4 0.5 278 11.4
2011-06-20 07:17:09 51°16.249 2°54.244 -999 0.6 272 11.7
2011-06-20 07:17:14 51°16.249 2°54.243 0.8 0.6 269 11.3
2011-06-20 07:17:20 51°16.249 2°54.241 1.5 0.6 282 11.2
2011-06-20 07:17:24 51°16.25 2°54.24 2.3 0.6 281 11.5
2011-06-20 07:17:29 51°16.25 2°54.238 2.9 0.6 280 11.4
2011-06-20 07:17:35 51°16.25 2°54.237 3.9 0.5 284 11.5
2011-06-20 07:17:39 51°16.25 2°54.235 4.5 0.6 282 11.4
2011-06-20 07:17:44 51°16.25 2°54.234 5.3 0.5 278 11.3
2011-06-20 07:17:49 51°16.25 2°54.233 6.3 0.6 282 11.3
2011-06-20 07:17:55 51°16.251 2°54.231 7.1 0.6 283 11.4
2011-06-20 07:17:59 51°16.251 2°54.23 8.1 0.6 281 11.3
2011-06-20 07:18:04 51°16.251 2°54.229 9.1 0.6 285 11.2
2011-06-20 07:18:09 51°16.251 2°54.228 10 0.6 285 11.4
2011-06-20 07:18:15 51°16.251 2°54.227 10.7 0.5 281 11.4
2011-06-20 07:18:19 51°16.251 2°54.226 11.7 0.6 282 11.3
2011-06-20 07:18:24 51°16.251 2°54.225 12.8 0.6 283 11.4
2011-06-20 07:18:29 51°16.251 2°54.223 13.7 0.6 284 11.3
2011-06-20 07:18:35 51°16.252 2°54.222 14.9 0.6 288 11.3
2011-06-20 07:18:39 51°16.252 2°54.221 16 0.5 288 11.5
2011-06-20 07:18:44 51°16.252 2°54.22 16.8 0.5 284 11.5
2011-06-20 07:18:49 51°16.252 2°54.219 18 0.6 285 11.4
2011-06-20 07:18:55 51°16.253 2°54.217 19.2 0.5 283 11.5
2011-06-20 07:18:59 51°16.253 2°54.216 20.5 0.5 283 11.4
2011-06-20 07:19:04 51°16.253 2°54.215 21.6 0.5 293 11.5
2011-06-20 07:19:09 51°16.253 2°54.213 22.6 0.6 289 11.5
2011-06-20 07:19:15 51°16.254 2°54.212 23.9 0.6 291 11.3
2011-06-20 07:19:20 51°16.254 2°54.211 25.3 0.5 290 11.3
2011-06-20 07:19:24 51°16.254 2°54.21 26.3 0.5 285 11.5
2011-06-20 07:19:29 51°16.254 2°54.209 27.8 0.6 289 11.4
2011-06-20 07:19:35 51°16.254 2°54.208 29.3 0.5 286 11.4
2011-06-20 07:19:40 51°16.255 2°54.207 30.4 0.5 287 11.3
2011-06-20 07:19:44 51°16.255 2°54.206 31.5 0.7 289 11.3
2011-06-20 07:19:49 51°16.255 2°54.205 33.1 0.4 290 11.3
2011-06-20 07:19:55 51°16.256 2°54.204 34.2 0.6 293 11.3
2011-06-20 07:19:59 51°16.256 2°54.203 35.4 0.6 291 11.2
2011-06-20 07:20:04 51°16.256 2°54.202 36.7 0.5 287 11.2
2011-06-20 07:20:09 51°16.256 2°54.2 38 0.5 286 11.3
2011-06-20 07:20:15 51°16.256 2°54.199 39.1 0.6 289 11.3
2011-06-20 07:20:19 51°16.257 2°54.198 40.4 0.5 282 11.3
2011-06-20 07:20:24 51°16.257 2°54.197 41.5 0.7 291 11.1
2011-06-20 07:20:29 51°16.257 2°54.197 42.8 0.5 284 11.1
2011-06-20 07:20:35 51°16.257 2°54.195 44 0.5 283 11.4
2011-06-20 07:20:39 51°16.257 2°54.194 44.8 0.6 290 11.3
2011-06-20 07:20:44 51°16.257 2°54.193 45.5 0.6 284 11.2
2011-06-20 07:20:49 51°16.258 2°54.192 46.5 0.5 284 11.3
2011-06-20 07:20:55 51°16.258 2°54.19 47.5 0.7 291 11.2
2011-06-20 07:20:59 51°16.258 2°54.189 48.1 0.5 273 11.4
2011-06-20 07:21:04 51°16.258 2°54.188 49 0.7 289 11.2
2011-06-20 07:21:09 51°16.258 2°54.187 49.7 0.6 286 11.1
2011-06-20 07:21:15 51°16.259 2°54.186 50.3 0.5 279 11.3
2011-06-20 07:21:19 51°16.259 2°54.184 51.2 0.6 282 11.3
2011-06-20 07:21:24 51°16.259 2°54.183 51.8 0.5 283 11.2
2011-06-20 07:21:29 51°16.259 2°54.182 52.3 0.5 284 11.4
2011-06-20 07:21:34 51°16.259 2°54.181 52.9 0.6 287 11.4
2011-06-20 07:21:40 51°16.26 2°54.179 52.9 0.6 285 11.3
2011-06-20 07:21:44 51°16.26 2°54.178 53.5 0.5 278 11.6
2011-06-20 07:21:49 51°16.26 2°54.177 53.8 0.6 292 11.6
2011-06-20 07:21:54 51°16.26 2°54.176 53.9 0.6 292 11.4
2011-06-20 07:22:00 51°16.26 2°54.175 54.2 0.5 278 11.5
2011-06-20 07:22:04 51°16.261 2°54.174 54.7 0.6 290 11.4
2011-06-20 07:22:08 51°16.261 2°54.173 55.1 0.5 283 11.3
2011-06-20 07:22:14 51°16.261 2°54.171 55.2 0.6 297 11.4
2011-06-20 07:22:19 51°16.261 2°54.171 55.1 0.3 294 11.5
2011-06-20 07:22:24 51°16.262 2°54.17 55 0.5 347 11.4
2011-06-20 07:22:28 51°16.263 2°54.171 54.8 0.9 19 11.3
2011-06-20 07:22:34 51°16.265 2°54.172 53.2 1.4 29 11.3
2011-06-20 07:22:40 51°16.267 2°54.174 50.6 1.9 30 11.3
2011-06-20 07:22:44 51°16.269 2°54.176 46.5 2.3 28 11.4
2011-06-20 07:22:48 51°16.272 2°54.178 41.4 2.8 25 11.4
2011-06-20 07:22:54 51°16.277 2°54.181 35.7 3.2 18 11.5
2011-06-20 07:23:00 51°16.282 2°54.183 29.8 3.4 14 11.4
2011-06-20 07:23:04 51°16.287 2°54.184 24 3.7 9 11.3
2011-06-20 07:23:08 51°16.291 2°54.185 17.6 4.2 1 11.4
2011-06-20 07:23:14 51°16.299 2°54.184 11.3 4.5 355 11.2
2011-06-20 07:23:20 51°16.307 2°54.182 4.7 4.9 350 11.5
2011-06-20 07:23:24 51°16.312 2°54.179 358.2 5.1 344 11.6
2011-06-20 07:23:28 51°16.318 2°54.176 352 5.5 338 11.5
2011-06-20 07:23:34 51°16.326 2°54.168 345.6 5.9 332 11.3
2011-06-20 07:23:40 51°16.335 2°54.16 339.3 6.2 327 11.5
2011-06-20 07:23:44 51°16.341 2°54.153 333.8 6.4 323 11.4
2011-06-20 07:23:49 51°16.348 2°54.143 329.7 6.7 320 11.3
2011-06-20 07:23:54 51°16.355 2°54.133 326.2 7.1 317 11.5
2011-06-20 07:24:00 51°16.365 2°54.119 323.8 7.6 317 11.4
2011-06-20 07:24:04 51°16.371 2°54.109 323.4 8.1 318 11.5
2011-06-20 07:24:09 51°16.38 2°54.097 324.1 8.6 319 11.3
2011-06-20 07:24:15 51°16.392 2°54.081 324.5 9 319 11.8
2011-06-20 07:24:20 51°16.402 2°54.068 325 9.3 320 11.7
2011-06-20 07:24:24 51°16.41 2°54.057 325.5 9.7 320 11.8
2011-06-20 07:24:29 51°16.42 2°54.043 325.3 9.9 321 11.6
2011-06-20 07:24:35 51°16.433 2°54.026 325.6 10.1 320 11.4
2011-06-20 07:24:39 51°16.442 2°54.015 326 10.3 321 11.6
2011-06-20 07:24:44 51°16.453 2°54 326 10.5 321 11.8
2011-06-20 07:24:49 51°16.465 2°53.985 326 10.6 321 11.9
2011-06-20 07:24:55 51°16.478 2°53.967 326.1 10.7 321 12.1
2011-06-20 07:24:59 51°16.488 2°53.956 326.4 10.7 321 12.1
2011-06-20 07:25:04 51°16.499 2°53.941 326.6 10.7 321 11.4
2011-06-20 07:25:09 51°16.511 2°53.926 326.7 10.9 321 11.8
2011-06-20 07:25:15 51°16.525 2°53.908 326.7 11 322 11.8
2011-06-20 07:25:19 51°16.535 2°53.896 327.1 11.2 322 11.7
2011-06-20 07:25:24 51°16.547 2°53.881 327.9 11.4 323 11.9
2011-06-20 07:25:29 51°16.56 2°53.865 327.8 11.5 321 11.5
2011-06-20 07:25:35 51°16.575 2°53.844 325.6 11.7 318 11.5
2011-06-20 07:25:39 51°16.585 2°53.831 324.3 12 319 11.8
2011-06-20 07:25:44 51°16.597 2°53.813 323.6 12.3 318 11.9
2011-06-20 07:25:49 51°16.61 2°53.794 322.6 12.5 317 11.9
2011-06-20 07:25:55 51°16.625 2°53.771 321.8 12.7 317 11.7
2011-06-20 07:26:00 51°16.638 2°53.751 321.1 12.8 316 11.5
2011-06-20 07:26:04 51°16.648 2°53.735 320.2 12.9 315 11.4
2011-06-20 07:26:09 51°16.66 2°53.714 319.4 12.9 314 11.4
2011-06-20 07:26:15 51°16.675 2°53.689 318.4 13 313 11.7
2011-06-20 07:26:20 51°16.687 2°53.668 317.5 13.1 312 11.5
2011-06-20 07:26:24 51°16.697 2°53.651 316.5 13.1 312 11.7
2011-06-20 07:26:29 51°16.709 2°53.629 315.8 13.2 311 11.6
2011-06-20 07:26:35 51°16.724 2°53.602 315.5 13.2 311 11.4
2011-06-20 07:26:39 51°16.733 2°53.584 315 13.2 310 11.4
2011-06-20 07:26:44 51°16.745 2°53.562 314.8 13.2 311 11.5
2011-06-20 07:26:49 51°16.757 2°53.54 314.8 13.2 311 11.5
2011-06-20 07:26:55 51°16.772 2°53.513 314.8 13.3 311 11.5
2011-06-20 07:26:59 51°16.781 2°53.495 314.9 13.2 311 11.4
2011-06-20 07:27:04 51°16.794 2°53.474 315.1 13.2 311 11.3
2011-06-20 07:27:09 51°16.806 2°53.452 315.7 13.2 312 11.2
2011-06-20 07:27:15 51°16.82 2°53.426 316 13.2 312 11.3
2011-06-20 07:27:19 51°16.83 2°53.409 316.6 13.2 313 11.1
2011-06-20 07:27:24 51°16.843 2°53.388 317.6 13.2 314 10.9
2011-06-20 07:27:29 51°16.856 2°53.367 318.5 13.2 315 10.9
2011-06-20 07:27:35 51°16.872 2°53.343 319.6 13.2 316 10.6
2011-06-20 07:27:39 51°16.882 2°53.327 320.2 13.1 316 9.5
2011-06-20 07:27:44 51°16.895 2°53.307 320.6 13 316 8.9
2011-06-20 07:27:49 51°16.908 2°53.287 320.9 12.7 315 8.2
2011-06-20 07:27:55 51°16.921 2°53.263 318.6 12.5 312 8
2011-06-20 07:27:59 51°16.931 2°53.246 316.4 12.6 311 8.6
2011-06-20 07:28:04 51°16.942 2°53.224 314.7 12.6 309 8.2
2011-06-20 07:28:09 51°16.953 2°53.202 313 12.7 307 8.2
2011-06-20 07:28:15 51°16.965 2°53.175 311.2 12.7 306 8.4
2011-06-20 07:28:20 51°16.975 2°53.151 309.5 12.8 304 8.8
2011-06-20 07:28:24 51°16.983 2°53.132 307.8 12.9 303 8.3
2011-06-20 07:28:29 51°16.992 2°53.108 306.3 13 302 8.7
2011-06-20 07:28:35 51°17.004 2°53.079 305.8 12.9 302 8.2
2011-06-20 07:28:40 51°17.013 2°53.055 305.5 13 302 8.4
2011-06-20 07:28:44 51°17.021 2°53.035 305.2 13.1 302 8.4
2011-06-20 07:28:49 51°17.031 2°53.01 305.1 13.2 302 8.9
2011-06-20 07:28:55 51°17.042 2°52.981 305 13.1 302 8.7
2011-06-20 07:28:59 51°17.049 2°52.961 304.7 13.1 301 9
2011-06-20 07:29:04 51°17.059 2°52.937 304.9 13.2 302 9.5
2011-06-20 07:29:09 51°17.069 2°52.911 304.8 13.3 301 9.5
2011-06-20 07:29:15 51°17.081 2°52.881 305.3 13.4 304 9.5
2011-06-20 07:29:19 51°17.089 2°52.861 305.7 13.4 302 9.6
2011-06-20 07:29:24 51°17.099 2°52.837 305.9 13.4 304 9.9
2011-06-20 07:29:29 51°17.11 2°52.813 307.4 13.4 305 10.3
2011-06-20 07:29:35 51°17.123 2°52.784 308.6 13.3 306 9.9
2011-06-20 07:29:39 51°17.132 2°52.765 309.4 13.3 307 10
2011-06-20 07:29:44 51°17.143 2°52.742 310.7 13.3 308 10
2011-06-20 07:29:49 51°17.155 2°52.719 312.4 13.3 310 10
2011-06-20 07:29:55 51°17.169 2°52.693 314 13.3 312 9.9
2011-06-20 07:29:59 51°17.179 2°52.676 315.4 13.2 312 9.5
2011-06-20 07:30:04 51°17.191 2°52.655 315.8 13.1 313 9.8
2011-06-20 07:30:09 51°17.204 2°52.634 316.7 13.1 313 9.8
2011-06-20 07:30:15 51°17.219 2°52.608 317.4 13.1 314 9.8
2011-06-20 07:30:20 51°17.231 2°52.587 317.6 13.2 313 10
2011-06-20 07:30:24 51°17.241 2°52.571 318.3 13.2 314 10.2
2011-06-20 07:30:29 51°17.254 2°52.549 317.6 13.2 312 10.2
2011-06-20 07:30:35 51°17.269 2°52.524 317.1 13.2 313 10.2
2011-06-20 07:30:40 51°17.281 2°52.502 316.4 13.2 312 10.1
2011-06-20 07:30:44 51°17.291 2°52.485 316.4 13.1 313 10.2
2011-06-20 07:30:49 51°17.303 2°52.464 316.5 13.2 312 10.4
2011-06-20 07:30:55 51°17.318 2°52.438 316.5 13.2 313 10.3
2011-06-20 07:31:00 51°17.331 2°52.417 316.5 13.2 314 10.6
2011-06-20 07:31:04 51°17.341 2°52.401 318.6 13.2 315 10.6
2011-06-20 07:31:09 51°17.354 2°52.38 319.3 13.2 315 10.6
2011-06-20 07:31:15 51°17.37 2°52.356 320.2 13.2 317 10.4
2011-06-20 07:31:20 51°17.383 2°52.337 320.9 13 316 10.3
2011-06-20 07:31:24 51°17.394 2°52.322 321.8 13.1 319 10.5
2011-06-20 07:31:29 51°17.408 2°52.302 322.7 13.1 319 10.5
2011-06-20 07:31:35 51°17.425 2°52.28 323.5 13.1 321 10.7
2011-06-20 07:31:39 51°17.436 2°52.266 325 13.1 321 10.9
2011-06-20 07:31:44 51°17.451 2°52.248 326.6 13.2 323 11.2
2011-06-20 07:31:49 51°17.465 2°52.231 327.4 13.2 323 11.6
2011-06-20 07:31:54 51°17.48 2°52.213 327.6 13.2 323 11.4
2011-06-20 07:31:59 51°17.495 2°52.196 327.7 13.1 323 11.1
2011-06-20 07:32:04 51°17.509 2°52.179 327.7 13.1 324 11.5
2011-06-20 07:32:09 51°17.524 2°52.161 328 13.1 323 11.2
2011-06-20 07:32:14 51°17.538 2°52.143 327.8 13.2 323 11.3
2011-06-20 07:32:20 51°17.556 2°52.122 327.4 13.1 322 11.3
2011-06-20 07:32:24 51°17.567 2°52.107 326.7 13.2 322 11.4
2011-06-20 07:32:29 51°17.581 2°52.089 325.5 13 320 11.1
2011-06-20 07:32:34 51°17.595 2°52.07 324.2 13.1 318 11.5
2011-06-20 07:32:40 51°17.611 2°52.047 323.2 13 318 11.6
2011-06-20 07:32:44 51°17.622 2°52.031 322.5 13 317 10.8
2011-06-20 07:32:49 51°17.635 2°52.011 322.1 13.1 318 10.6
2011-06-20 07:32:55 51°17.651 2°51.988 321.9 13 318 10.3
2011-06-20 07:33:00 51°17.665 2°51.969 321.9 13 318 10.3
2011-06-20 07:33:04 51°17.675 2°51.953 322.2 13.1 318 10.4
2011-06-20 07:33:09 51°17.689 2°51.934 322.4 13.1 319 10.4
2011-06-20 07:33:15 51°17.706 2°51.912 323.2 13.1 320 10
2011-06-20 07:33:20 51°17.72 2°51.893 324.4 13.1 321 10.1
2011-06-20 07:33:24 51°17.731 2°51.879 325.2 13.1 321 10
2011-06-20 07:33:29 51°17.745 2°51.861 326 13 323 10
2011-06-20 07:33:35 51°17.763 2°51.84 326.7 13 322 10.4
2011-06-20 07:33:40 51°17.777 2°51.823 327.4 13.1 323 10.4
2011-06-20 07:33:44 51°17.789 2°51.809 327.4 13 323 9.9
2011-06-20 07:33:49 51°17.803 2°51.791 327.5 13.2 323 10.2
2011-06-20 07:33:54 51°17.818 2°51.774 327.5 13.2 323 10.1
2011-06-20 07:33:59 51°17.832 2°51.756 327.4 13.1 323 10.2
2011-06-20 07:34:04 51°17.847 2°51.738 327.2 13.2 322 10.3
2011-06-20 07:34:09 51°17.861 2°51.72 326.8 13.2 322 10.5
2011-06-20 07:34:15 51°17.878 2°51.698 326.1 13.1 320 10.2
2011-06-20 07:34:20 51°17.892 2°51.679 325 13.2 319 10.2
2011-06-20 07:34:24 51°17.903 2°51.663 323.8 13.3 318 9.9
2011-06-20 07:34:29 51°17.916 2°51.643 322.3 13.1 317 10
2011-06-20 07:34:35 51°17.932 2°51.62 321.8 13.2 318 10.5
2011-06-20 07:34:39 51°17.943 2°51.603 321.5 13.3 316 10.5
2011-06-20 07:34:44 51°17.956 2°51.583 321.3 13.3 317 10.7
2011-06-20 07:34:49 51°17.97 2°51.563 321 13.4 317 10.7
2011-06-20 07:34:54 51°17.983 2°51.543 321.1 13.4 317 10.5
2011-06-20 07:35:00 51°18 2°51.519 321.5 13.3 317 10.5
2011-06-20 07:35:04 51°18.011 2°51.503 322 13.4 318 10.9
2011-06-20 07:35:09 51°18.024 2°51.484 322.5 13.4 319 11.2
2011-06-20 07:35:14 51°18.039 2°51.465 323.2 13.4 320 11.3
2011-06-20 07:35:20 51°18.056 2°51.442 324.3 13.4 321 11.2
2011-06-20 07:35:24 51°18.067 2°51.428 325.6 13.4 322 11.4
2011-06-20 07:35:29 51°18.082 2°51.409 326.7 13.3 322 11.2
2011-06-20 07:35:35 51°18.1 2°51.388 326.8 13.4 323 11.6
2011-06-20 07:35:40 51°18.114 2°51.37 327.3 13.3 322 11.5
2011-06-20 07:35:44 51°18.126 2°51.356 327.3 13.2 323 11.3
2011-06-20 07:35:49 51°18.141 2°51.338 327.2 13.2 322 11.9
2011-06-20 07:35:55 51°18.158 2°51.316 326.8 13.2 322 12.2
2011-06-20 07:35:59 51°18.169 2°51.302 326.3 13.2 322 12.1
2011-06-20 07:36:04 51°18.184 2°51.283 326 13.2 321 12.2
2011-06-20 07:36:09 51°18.198 2°51.265 325.7 13 322 12.1
2011-06-20 07:36:15 51°18.215 2°51.244 325.9 12.7 322 12.3
2011-06-20 07:36:19 51°18.225 2°51.23 326 12.5 322 12.4
2011-06-20 07:36:24 51°18.239 2°51.213 326.4 12.4 322 12.7
2011-06-20 07:36:29 51°18.252 2°51.196 326.6 12.3 322 12.8
2011-06-20 07:36:35 51°18.268 2°51.177 326.7 12.1 322 12.8
2011-06-20 07:36:39 51°18.279 2°51.164 326.9 12 323 13
2011-06-20 07:36:44 51°18.292 2°51.148 327.5 11.8 324 12.7
2011-06-20 07:36:49 51°18.305 2°51.133 328.2 11.5 324 12.8
2011-06-20 07:36:54 51°18.318 2°51.118 328.7 11.4 324 12.7
2011-06-20 07:36:59 51°18.331 2°51.104 329 11.2 325 12.9
2011-06-20 07:37:04 51°18.343 2°51.089 329.5 11.1 324 12.9
2011-06-20 07:37:09 51°18.355 2°51.075 329.2 10.8 324 12.9
2011-06-20 07:37:15 51°18.37 2°51.058 328.6 10.8 323 13.4
2011-06-20 07:37:20 51°18.381 2°51.043 327.9 10.7 322 13.5
2011-06-20 07:37:24 51°18.39 2°51.032 327 10.5 321 13.3
2011-06-20 07:37:29 51°18.401 2°51.017 325.8 10.1 320 13.6
2011-06-20 07:37:34 51°18.412 2°51.003 324.7 9.9 319 13.6
2011-06-20 07:37:40 51°18.424 2°50.986 323.4 9.5 320 13.6
2011-06-20 07:37:44 51°18.431 2°50.976 323.1 9.1 320 13.7
2011-06-20 07:37:49 51°18.442 2°50.967 328.5 8.3 332 13.7
2011-06-20 07:37:55 51°18.453 2°50.959 336.8 7.6 338 13.9
2011-06-20 07:38:00 51°18.463 2°50.955 345.3 6.9 345 13.6
2011-06-20 07:38:04 51°18.47 2°50.953 352.5 6.3 349 13.8
2011-06-20 07:38:09 51°18.478 2°50.952 358.7 5.9 355 13.9
2011-06-20 07:38:15 51°18.487 2°50.952 4.9 5.4 -999 14
2011-06-20 07:38:19 51°18.492 2°50.953 10.5 5 6 13.8
2011-06-20 07:38:24 51°18.499 2°50.955 16.1 4.7 9 13.9
2011-06-20 07:38:29 51°18.505 2°50.957 21.4 4.3 16 14.1
2011-06-20 07:38:35 51°18.511 2°50.96 25.8 4 16 13.9
2011-06-20 07:38:39 51°18.515 2°50.962 28.8 3.7 17 13.8
2011-06-20 07:38:44 51°18.519 2°50.965 31.1 3.3 21 13.8
2011-06-20 07:38:49 51°18.524 2°50.967 33.3 2.8 19 14.1
2011-06-20 07:38:55 51°18.527 2°50.97 35.8 2.2 21 14.1
2011-06-20 07:38:59 51°18.529 2°50.971 39.4 1.7 22 14
2011-06-20 07:39:04 51°18.531 2°50.972 44 1.2 13 13.9
2011-06-20 07:39:09 51°18.532 2°50.972 49.4 0.8 1 14
2011-06-20 07:39:15 51°18.533 2°50.971 53.8 0.5 336 14.2
2011-06-20 07:39:20 51°18.533 2°50.97 57.1 0.7 310 14.1
2011-06-20 07:39:24 51°18.533 2°50.969 59.6 0.7 301 14
2011-06-20 07:39:29 51°18.534 2°50.968 61.8 0.6 294 14.2
2011-06-20 07:39:35 51°18.534 2°50.966 62.9 0.7 300 14.1
2011-06-20 07:39:40 51°18.535 2°50.965 63.7 0.6 283 14.3
2011-06-20 07:39:44 51°18.535 2°50.964 64.6 0.7 298 14.1
2011-06-20 07:39:49 51°18.535 2°50.963 65.3 0.7 293 14.1
2011-06-20 07:39:54 51°18.536 2°50.961 65.6 0.7 294 14.4
2011-06-20 07:40:00 51°18.536 2°50.96 66.1 0.7 293 14.1
2011-06-20 07:40:04 51°18.537 2°50.958 66.6 0.7 293 14
2011-06-20 07:40:09 51°18.537 2°50.957 66.9 0.6 280 14.3
2011-06-20 07:40:14 51°18.537 2°50.955 66.8 0.8 298 14.1
2011-06-20 07:40:19 51°18.537 2°50.954 66.9 0.7 292 14
2011-06-20 07:40:24 51°18.538 2°50.953 66.7 0.6 287 14.3
2011-06-20 07:40:29 51°18.538 2°50.951 66.8 0.6 281 14.4
2011-06-20 07:40:34 51°18.539 2°50.949 66.8 0.8 295 14
2011-06-20 07:40:39 51°18.539 2°50.948 66.4 0.8 290 14.1
2011-06-20 07:40:44 51°18.54 2°50.946 66.1 0.7 287 14
2011-06-20 07:40:49 51°18.54 2°50.945 65.9 0.7 288 14.1
2011-06-20 07:40:55 51°18.54 2°50.943 65.2 0.6 285 14.3
2011-06-20 07:40:59 51°18.54 2°50.942 64.7 0.8 292 14.2
2011-06-20 07:41:04 51°18.541 2°50.94 64.3 0.7 291 14.1
2011-06-20 07:41:09 51°18.541 2°50.939 64.1 0.7 287 14
2011-06-20 07:41:15 51°18.541 2°50.937 63.5 0.7 286 14.1
2011-06-20 07:41:19 51°18.542 2°50.936 62.9 0.8 291 13.9
2011-06-20 07:41:24 51°18.542 2°50.935 62.6 0.6 279 14.1
2011-06-20 07:41:29 51°18.542 2°50.933 62.2 0.7 288 14.3
2011-06-20 07:41:35 51°18.543 2°50.931 61.7 0.8 289 14
2011-06-20 07:41:40 51°18.543 2°50.93 61.5 0.7 289 14
2011-06-20 07:41:44 51°18.543 2°50.929 61.1 0.5 276 14.1
2011-06-20 07:41:49 51°18.544 2°50.927 60.6 0.8 295 14
2011-06-20 07:41:54 51°18.544 2°50.926 60.2 0.7 289 13.9
2011-06-20 07:41:59 51°18.544 2°50.925 60 0.6 283 14.3
2011-06-20 07:42:04 51°18.545 2°50.923 59.5 0.9 294 14.2
2011-06-20 07:42:09 51°18.545 2°50.921 59 0.8 291 14.1
2011-06-20 07:42:14 51°18.545 2°50.92 59.1 0.7 287 14.1
2011-06-20 07:42:20 51°18.545 2°50.918 58.9 0.7 286 14.1
2011-06-20 07:42:24 51°18.546 2°50.917 58.7 0.7 290 14
2011-06-20 07:42:29 51°18.546 2°50.916 58.4 0.6 286 14.3
2011-06-20 07:42:34 51°18.546 2°50.914 58 0.8 298 14.1
2011-06-20 07:42:40 51°18.547 2°50.913 57.8 0.7 288 14
2011-06-20 07:42:44 51°18.547 2°50.912 58 0.7 286 14.4
2011-06-20 07:42:49 51°18.547 2°50.91 57.5 0.7 284 14.3
2011-06-20 07:42:55 51°18.548 2°50.908 57.5 0.8 287 14
2011-06-20 07:42:59 51°18.548 2°50.907 57.7 0.7 287 14.1
2011-06-20 07:43:04 51°18.548 2°50.906 57.4 0.7 292 14
2011-06-20 07:43:09 51°18.549 2°50.904 57.2 0.7 287 14.1
2011-06-20 07:43:15 51°18.549 2°50.902 57 0.7 289 14.1
2011-06-20 07:43:19 51°18.549 2°50.901 57 0.8 293 14.1
2011-06-20 07:43:24 51°18.55 2°50.9 57 0.6 286 14.4
2011-06-20 07:43:29 51°18.55 2°50.898 56.9 0.6 287 14.4
2011-06-20 07:43:35 51°18.551 2°50.896 56.7 0.8 293 14.2
2011-06-20 07:43:39 51°18.551 2°50.895 56.9 0.8 296 14.1
2011-06-20 07:43:44 51°18.551 2°50.894 56.9 0.7 291 14.2
2011-06-20 07:43:49 51°18.552 2°50.892 56.8 0.7 291 14.2
2011-06-20 07:43:55 51°18.552 2°50.891 57.1 0.7 286 14.3
2011-06-20 07:44:00 51°18.552 2°50.889 57.2 0.8 293 14.3
2011-06-20 07:44:04 51°18.552 2°50.888 57.4 0.8 294 14.1
2011-06-20 07:44:09 51°18.553 2°50.886 57.5 0.6 287 14.3
2011-06-20 07:44:15 51°18.553 2°50.885 57.7 0.7 293 14.2
2011-06-20 07:44:20 51°18.554 2°50.883 58 0.7 294 14
2011-06-20 07:44:24 51°18.554 2°50.882 58.1 0.7 290 14.2
2011-06-20 07:44:29 51°18.554 2°50.88 58.1 0.7 292 14.4
2011-06-20 07:44:35 51°18.555 2°50.879 58.3 0.6 308 14.2
2011-06-20 07:44:40 51°18.556 2°50.878 58.6 0.7 333 14
2011-06-20 07:44:44 51°18.556 2°50.879 59.4 0.5 7 14.2
2011-06-20 07:44:49 51°18.557 2°50.879 60.5 0.9 27 14.3
2011-06-20 07:44:54 51°18.559 2°50.881 61.8 1.5 44 14.1
2011-06-20 07:44:59 51°18.561 2°50.885 63.7 2.2 53 14.1
2011-06-20 07:45:04 51°18.562 2°50.89 67.2 3 62 14.2
2011-06-20 07:45:09 51°18.565 2°50.897 69.8 3.8 65 14.3
2011-06-20 07:45:14 51°18.567 2°50.906 71.3 4.7 67 14.1
2011-06-20 07:45:20 51°18.57 2°50.92 72.1 5.5 67 14
2011-06-20 07:45:24 51°18.573 2°50.93 72.5 6.3 70 14.2
2011-06-20 07:45:29 51°18.577 2°50.944 72.5 7 67 14.1
2011-06-20 07:45:34 51°18.58 2°50.96 71.8 7.7 68 13.9
2011-06-20 07:45:40 51°18.586 2°50.98 71.4 8.3 68 13.9
2011-06-20 07:45:44 51°18.589 2°50.994 71.3 8.8 68 14
2011-06-20 07:45:49 51°18.594 2°51.014 71.2 9.4 67 14
2011-06-20 07:45:55 51°18.6 2°51.038 70.5 9.9 69 14
2011-06-20 07:45:59 51°18.605 2°51.054 71.3 10.3 67 14.1
2011-06-20 07:46:04 51°18.611 2°51.076 70.3 10.6 68 14.1
2011-06-20 07:46:09 51°18.616 2°51.098 71.2 11 68 14
2011-06-20 07:46:15 51°18.623 2°51.126 70.9 11.3 68 14.3
2011-06-20 07:46:20 51°18.629 2°51.15 70.5 11.5 68 14.2
2011-06-20 07:46:24 51°18.634 2°51.169 70.9 11.7 68 13.8
2011-06-20 07:46:29 51°18.64 2°51.193 71.3 11.9 68 13.8
2011-06-20 07:46:35 51°18.647 2°51.222 71.1 11.9 68 13.8
2011-06-20 07:46:40 51°18.653 2°51.247 71.2 11.9 69 13.8
2011-06-20 07:46:44 51°18.658 2°51.267 72 11.9 69 13.6
2011-06-20 07:46:49 51°18.664 2°51.292 72 12.1 70 13.8
2011-06-20 07:46:55 51°18.671 2°51.322 72.2 12.2 69 13.9
2011-06-20 07:47:00 51°18.677 2°51.347 71.9 12.1 69 13.8
2011-06-20 07:47:04 51°18.682 2°51.367 72.1 12 68 13.6
2011-06-20 07:47:09 51°18.688 2°51.392 72.2 12.1 69 13.8
2011-06-20 07:47:15 51°18.695 2°51.422 71.6 12.2 68 14
2011-06-20 07:47:19 51°18.7 2°51.442 71.7 12 70 14
2011-06-20 07:47:24 51°18.705 2°51.467 72.8 12.1 71 13.8
2011-06-20 07:47:29 51°18.71 2°51.493 74.1 12.2 72 14.1
2011-06-20 07:47:34 51°18.716 2°51.518 74.3 12.1 72 13.8
2011-06-20 07:47:39 51°18.72 2°51.543 75.4 12 73 13.9
2011-06-20 07:47:44 51°18.725 2°51.569 75.8 12 73 13.7
2011-06-20 07:47:48 51°18.729 2°51.59 76.3 12.2 74 13.8
2011-06-20 07:47:54 51°18.735 2°51.621 76.3 12.1 73 13.7
2011-06-20 07:47:59 51°18.739 2°51.646 76.1 12 74 13.7
2011-06-20 07:48:04 51°18.744 2°51.672 76.3 12.1 74 13.5
2011-06-20 07:48:08 51°18.748 2°51.693 76.7 12.2 74 13.4
2011-06-20 07:48:14 51°18.753 2°51.724 76.4 12.1 74 13.7
2011-06-20 07:48:19 51°18.758 2°51.75 76.8 12 76 13.6
2011-06-20 07:48:24 51°18.762 2°51.775 77.7 12.1 75 13.4
2011-06-20 07:48:28 51°18.765 2°51.796 77.7 12.1 76 13.2
2011-06-20 07:48:34 51°18.77 2°51.827 77.9 12.1 75 13.2
2011-06-20 07:48:40 51°18.775 2°51.858 77.8 12.1 76 13.1
2011-06-20 07:48:44 51°18.779 2°51.879 77.8 12.1 76 13.1
2011-06-20 07:48:48 51°18.782 2°51.9 78.4 12 76 13.2
2011-06-20 07:48:54 51°18.787 2°51.931 78.7 12.1 77 13.4
2011-06-20 07:49:00 51°18.793 2°51.961 77.4 12 73 13.1
2011-06-20 07:49:04 51°18.796 2°51.982 76.6 12 74 13.2
2011-06-20 07:49:09 51°18.801 2°52.008 76.1 12 74 13.1
2011-06-20 07:49:14 51°18.805 2°52.034 76.3 12.1 73 13.1
2011-06-20 07:49:19 51°18.811 2°52.059 75.6 12.1 70 12.8
2011-06-20 07:49:24 51°18.815 2°52.084 74.7 12 73 13
2011-06-20 07:49:29 51°18.821 2°52.109 74.1 12 70 13
2011-06-20 07:49:34 51°18.826 2°52.135 74.1 12 72 13
2011-06-20 07:49:39 51°18.832 2°52.16 73.3 12 69 12.8
2011-06-20 07:49:44 51°18.838 2°52.185 73.4 11.9 71 12.6
2011-06-20 07:49:49 51°18.843 2°52.209 73.6 11.9 71 12.7
2011-06-20 07:49:55 51°18.849 2°52.239 73.9 11.9 71 12.7
2011-06-20 07:49:59 51°18.854 2°52.26 74 12 72 12.7
2011-06-20 07:50:04 51°18.859 2°52.285 74.3 11.9 73 12.5
2011-06-20 07:50:08 51°18.862 2°52.305 76 11.9 74 12.6
2011-06-20 07:50:14 51°18.868 2°52.336 76.7 11.9 74 12.5
2011-06-20 07:50:20 51°18.872 2°52.367 77.5 11.9 76 12.6
2011-06-20 07:50:24 51°18.876 2°52.387 77.8 12 74 12.4
2011-06-20 07:50:28 51°18.879 2°52.408 77.8 12 76 12.4
2011-06-20 07:50:34 51°18.884 2°52.439 77.7 11.9 75 12.4
2011-06-20 07:50:39 51°18.888 2°52.464 78.3 12 76 12.4
2011-06-20 07:50:44 51°18.893 2°52.49 78.5 12 76 12.4
2011-06-20 07:50:48 51°18.896 2°52.511 78.5 12 75 12.1
2011-06-20 07:50:54 51°18.901 2°52.542 77.7 11.9 75 12.3
2011-06-20 07:51:00 51°18.906 2°52.572 76.6 12 74 12.2
2011-06-20 07:51:04 51°18.91 2°52.592 75.9 12 73 12.2
2011-06-20 07:51:08 51°18.915 2°52.612 75.5 12 73 12.2
2011-06-20 07:51:14 51°18.92 2°52.643 76.1 12.1 73 12.2
2011-06-20 07:51:20 51°18.926 2°52.673 75.6 12 73 12.2
2011-06-20 07:51:24 51°18.93 2°52.694 75.9 12 74 12.2
2011-06-20 07:51:28 51°18.934 2°52.714 76.4 11.9 74 12.2
2011-06-20 07:51:34 51°18.939 2°52.744 76.9 11.9 74 12
2011-06-20 07:51:40 51°18.944 2°52.775 77 12 76 11.9
2011-06-20 07:51:44 51°18.947 2°52.795 77.7 12 75 12
2011-06-20 07:51:49 51°18.952 2°52.821 77.2 11.8 76 12
2011-06-20 07:51:55 51°18.956 2°52.851 78.4 11.8 77 12
2011-06-20 07:51:59 51°18.96 2°52.872 78.7 12 75 12
2011-06-20 07:52:04 51°18.964 2°52.897 77.8 11.9 76 12.2
2011-06-20 07:52:09 51°18.968 2°52.923 77.8 11.9 76 12
2011-06-20 07:52:14 51°18.972 2°52.948 78.4 11.9 76 11.8
2011-06-20 07:52:19 51°18.975 2°52.974 79.1 12 77 12
2011-06-20 07:52:24 51°18.981 2°53 78.5 12.1 74 11.9
2011-06-20 07:52:28 51°18.984 2°53.02 77.4 11.9 74 11.8
2011-06-20 07:52:34 51°18.989 2°53.05 76.6 11.8 73 11.9
2011-06-20 07:52:39 51°18.994 2°53.075 76 11.8 72 11.6
2011-06-20 07:52:44 51°18.999 2°53.1 75.2 12 72 11.7
2011-06-20 07:52:48 51°19.004 2°53.12 74 11.9 68 11.5
2011-06-20 07:52:54 51°19.01 2°53.15 73.3 11.8 72 11.6
2011-06-20 07:52:59 51°19.016 2°53.175 74.1 12 70 11.7
2011-06-20 07:53:04 51°19.021 2°53.2 73.9 12 72 12
2011-06-20 07:53:08 51°19.026 2°53.22 73.6 11.9 70 11.8
2011-06-20 07:53:14 51°19.032 2°53.25 73.9 11.9 72 11.9
2011-06-20 07:53:20 51°19.038 2°53.28 74.3 12 71 11.9
2011-06-20 07:53:24 51°19.042 2°53.3 73.8 12 72 11.6
2011-06-20 07:53:28 51°19.046 2°53.32 74.2 11.9 70 11.6
2011-06-20 07:53:34 51°19.053 2°53.35 73.6 11.9 72 11.7
2011-06-20 07:53:40 51°19.06 2°53.38 73.5 11.9 71 11.8
2011-06-20 07:53:44 51°19.063 2°53.4 74.1 11.9 73 11.8
2011-06-20 07:53:48 51°19.068 2°53.42 74.3 12 72 11.7
2011-06-20 07:53:54 51°19.073 2°53.451 74.8 12 73 11.7
2011-06-20 07:53:59 51°19.079 2°53.475 75 11.9 72 11.8
2011-06-20 07:54:04 51°19.083 2°53.501 75.6 12 74 11.8
2011-06-20 07:54:08 51°19.087 2°53.521 76.3 12 74 12
2011-06-20 07:54:14 51°19.092 2°53.552 76.5 12 75 11.9
2011-06-20 07:54:19 51°19.097 2°53.577 77 11.9 75 11.6
2011-06-20 07:54:24 51°19.1 2°53.603 77.8 11.9 76 11.7
2011-06-20 07:54:28 51°19.104 2°53.624 78.1 11.9 75 11.7
2011-06-20 07:54:34 51°19.108 2°53.654 78.3 11.9 76 11.8
2011-06-20 07:54:39 51°19.112 2°53.68 78.3 11.9 76 11.7
2011-06-20 07:54:44 51°19.116 2°53.705 78.1 11.9 75 11.8
2011-06-20 07:54:48 51°19.12 2°53.725 77.4 11.8 75 11.9
2011-06-20 07:54:54 51°19.125 2°53.756 77.2 11.9 74 11.8
2011-06-20 07:55:00 51°19.131 2°53.786 76.7 12 74 11.9
2011-06-20 07:55:04 51°19.135 2°53.806 75.3 11.9 72 11.9
2011-06-20 07:55:08 51°19.139 2°53.826 74.9 11.9 73 11.6
2011-06-20 07:55:14 51°19.145 2°53.856 74.9 11.9 73 11.7
2011-06-20 07:55:19 51°19.15 2°53.882 74.8 11.9 73 11.8
2011-06-20 07:55:24 51°19.155 2°53.907 75.2 11.9 73 11.8
2011-06-20 07:55:29 51°19.159 2°53.932 75.4 11.9 73 11.8
2011-06-20 07:55:35 51°19.165 2°53.962 76 12 74 11.8
2011-06-20 07:55:39 51°19.169 2°53.982 76 11.9 73 11.7
2011-06-20 07:55:44 51°19.173 2°54.008 75.1 11.9 74 11.7
2011-06-20 07:55:49 51°19.179 2°54.032 75.1 11.9 73 11.6
2011-06-20 07:55:54 51°19.184 2°54.057 75.3 11.8 72 11.6
2011-06-20 07:55:59 51°19.188 2°54.082 75.2 11.9 72 11.7
2011-06-20 07:56:04 51°19.194 2°54.107 74.1 11.8 70 11.8
2011-06-20 07:56:09 51°19.199 2°54.132 74.1 11.8 75 11.8
2011-06-20 07:56:14 51°19.203 2°54.157 75.4 11.8 73 11.7
2011-06-20 07:56:19 51°19.208 2°54.182 76.1 11.8 75 11.7
2011-06-20 07:56:24 51°19.212 2°54.207 76.3 11.8 75 11.8
2011-06-20 07:56:29 51°19.216 2°54.233 76.8 11.9 76 12
2011-06-20 07:56:35 51°19.221 2°54.263 77.4 11.9 76 11.7
2011-06-20 07:56:39 51°19.224 2°54.284 78.6 11.8 77 11.5
2011-06-20 07:56:44 51°19.228 2°54.309 79 11.7 77 11.8
2011-06-20 07:56:49 51°19.231 2°54.334 79.1 11.9 78 11.8
2011-06-20 07:56:54 51°19.235 2°54.36 79.2 12 77 11.7
2011-06-20 07:56:59 51°19.239 2°54.386 78.8 11.9 77 11.8
2011-06-20 07:57:04 51°19.243 2°54.411 78.5 11.8 77 11.7
2011-06-20 07:57:09 51°19.246 2°54.437 79.2 11.8 76 11.5
2011-06-20 07:57:15 51°19.251 2°54.467 78.9 11.9 77 11.8
2011-06-20 07:57:19 51°19.255 2°54.487 77.3 11.8 74 11.6
2011-06-20 07:57:24 51°19.259 2°54.512 76.9 11.7 75 11.3
2011-06-20 07:57:28 51°19.262 2°54.533 77.4 11.9 76 11.8
2011-06-20 07:57:34 51°19.268 2°54.563 76.8 11.8 73 11.6
2011-06-20 07:57:40 51°19.273 2°54.593 76.8 11.9 76 11.8
2011-06-20 07:57:44 51°19.277 2°54.613 76.3 11.7 73 11.6
2011-06-20 07:57:48 51°19.28 2°54.633 76.3 11.7 75 11.8
2011-06-20 07:57:54 51°19.286 2°54.663 76.2 11.8 73 11.5
2011-06-20 07:58:00 51°19.291 2°54.693 75.7 11.8 74 11.5
2011-06-20 07:58:04 51°19.295 2°54.713 75.5 11.7 72 11.5
2011-06-20 07:58:08 51°19.299 2°54.732 74.9 11.7 73 11.6
2011-06-20 07:58:14 51°19.305 2°54.762 75.3 11.8 73 11.7
2011-06-20 07:58:20 51°19.311 2°54.792 74.8 11.9 71 11.7
2011-06-20 07:58:24 51°19.315 2°54.812 74 11.8 72 11.8
2011-06-20 07:58:28 51°19.32 2°54.832 73.6 11.6 70 11.5
2011-06-20 07:58:34 51°19.326 2°54.861 73.6 11.7 71 11.7
2011-06-20 07:58:39 51°19.332 2°54.886 73.2 11.9 69 11.5
2011-06-20 07:58:44 51°19.336 2°54.911 73.4 11.8 72 11.7
2011-06-20 07:58:48 51°19.341 2°54.93 73.4 11.7 70 11.5
2011-06-20 07:58:54 51°19.347 2°54.96 74 11.8 73 11.6
2011-06-20 07:58:59 51°19.352 2°54.985 74.6 11.9 72 11.7
2011-06-20 07:59:04 51°19.357 2°55.01 74.6 11.7 74 11.5
2011-06-20 07:59:08 51°19.36 2°55.03 76.5 11.9 75 11.5
2011-06-20 07:59:14 51°19.366 2°55.061 77.1 12 74 11.6
2011-06-20 07:59:19 51°19.37 2°55.086 76.8 11.8 74 11.6
2011-06-20 07:59:24 51°19.374 2°55.111 76.8 11.6 75 11.5
2011-06-20 07:59:29 51°19.378 2°55.136 77.5 11.8 75 11.5
2011-06-20 07:59:34 51°19.382 2°55.162 77.4 11.9 76 11.7
2011-06-20 07:59:40 51°19.387 2°55.192 78 11.8 76 11.5
2011-06-20 07:59:44 51°19.39 2°55.212 79.2 11.8 78 11.6
2011-06-20 07:59:48 51°19.393 2°55.233 78.8 11.8 77 11.6
2011-06-20 07:59:54 51°19.397 2°55.263 79.1 11.8 77 11.3
2011-06-20 08:00:00 51°19.401 2°55.294 79.6 11.8 78 11.5
2011-06-20 08:00:04 51°19.405 2°55.314 78.7 11.8 76 11.5
2011-06-20 08:00:08 51°19.408 2°55.335 78.3 11.9 77 11.4
2011-06-20 08:00:14 51°19.413 2°55.365 78 11.9 75 11.4
2011-06-20 08:00:20 51°19.418 2°55.396 77.6 11.9 75 11.4
2011-06-20 08:00:24 51°19.421 2°55.416 77.4 11.9 75 11.3
2011-06-20 08:00:29 51°19.425 2°55.442 77.4 11.9 77 11.5
2011-06-20 08:00:35 51°19.431 2°55.472 77.5 11.8 74 11.6
2011-06-20 08:00:40 51°19.434 2°55.497 77 11.8 77 11.5
2011-06-20 08:00:44 51°19.438 2°55.517 77.5 11.8 74 11.4
2011-06-20 08:00:49 51°19.442 2°55.542 77.3 11.7 74 11.2
2011-06-20 08:00:54 51°19.447 2°55.567 76.6 11.7 74 11.3
2011-06-20 08:00:59 51°19.451 2°55.593 76.1 11.8 74 11.3
2011-06-20 08:01:04 51°19.456 2°55.617 75.3 11.8 72 11.4
2011-06-20 08:01:08 51°19.461 2°55.637 74.1 11.8 71 11.5
2011-06-20 08:01:14 51°19.467 2°55.666 73 11.6 70 11.4
2011-06-20 08:01:19 51°19.473 2°55.69 72.7 11.7 70 11.4
2011-06-20 08:01:24 51°19.479 2°55.715 72.4 11.9 68 11.3
2011-06-20 08:01:28 51°19.484 2°55.734 71.2 11.8 69 11.5
2011-06-20 08:01:34 51°19.49 2°55.764 71.8 11.6 70 11.3
2011-06-20 08:01:40 51°19.497 2°55.793 72.2 11.7 69 11.2
2011-06-20 08:01:44 51°19.502 2°55.812 72.4 11.8 68 11.2
2011-06-20 08:01:50 51°19.509 2°55.842 71.7 11.7 70 11.2
2011-06-20 08:01:54 51°19.513 2°55.861 71.9 11.6 70 11.3
2011-06-20 08:01:59 51°19.518 2°55.886 73.1 11.7 71 11.2
2011-06-20 08:02:04 51°19.524 2°55.911 73.5 11.8 71 11.1
2011-06-20 08:02:09 51°19.529 2°55.935 73.4 11.7 71 11.3
2011-06-20 08:02:15 51°19.535 2°55.965 73.6 11.6 73 11.1
2011-06-20 08:02:19 51°19.539 2°55.985 75 11.7 73 11
2011-06-20 08:02:24 51°19.543 2°56.01 75.7 11.8 74 11.1
2011-06-20 08:02:29 51°19.547 2°56.035 76.3 11.8 75 11.2
2011-06-20 08:02:34 51°19.551 2°56.06 77 11.7 76 11.3
2011-06-20 08:02:39 51°19.556 2°56.085 77.1 11.7 73 11.3
2011-06-20 08:02:44 51°19.56 2°56.109 76.8 11.6 75 11.1
2011-06-20 08:02:48 51°19.563 2°56.13 77.2 11.7 73 11
2011-06-20 08:02:54 51°19.569 2°56.159 76.6 11.7 74 11
2011-06-20 08:03:00 51°19.574 2°56.19 76.8 11.7 74 11.1
2011-06-20 08:03:04 51°19.577 2°56.209 76.4 11.6 75 11.2
2011-06-20 08:03:08 51°19.581 2°56.229 76.1 11.7 73 11.2
2011-06-20 08:03:14 51°19.587 2°56.259 75.1 11.7 72 11.1
2011-06-20 08:03:19 51°19.593 2°56.283 74.1 11.7 72 11.2
2011-06-20 08:03:24 51°19.598 2°56.308 73.7 11.8 70 11.1
2011-06-20 08:03:28 51°19.603 2°56.328 72.6 11.8 69 11
2011-06-20 08:03:34 51°19.61 2°56.357 71.9 11.8 68 11.1
2011-06-20 08:03:39 51°19.616 2°56.381 71.4 11.7 69 11.1
2011-06-20 08:03:44 51°19.622 2°56.405 71.2 11.8 68 11
2011-06-20 08:03:48 51°19.627 2°56.424 70.8 11.8 68 11
2011-06-20 08:03:54 51°19.634 2°56.453 70.2 11.8 67 11.1
2011-06-20 08:03:59 51°19.641 2°56.477 69.8 11.8 68 11.1
2011-06-20 08:04:04 51°19.647 2°56.502 70.4 11.8 68 11
2011-06-20 08:04:08 51°19.652 2°56.521 71.2 11.7 69 11
2011-06-20 08:04:14 51°19.659 2°56.55 71.6 11.7 69 11.1
2011-06-20 08:04:20 51°19.665 2°56.579 71.9 11.7 69 10.8
2011-06-20 08:04:24 51°19.669 2°56.599 72.7 11.7 71 10.8
2011-06-20 08:04:28 51°19.674 2°56.619 73.3 11.7 72 11.1
2011-06-20 08:04:35 51°19.68 2°56.654 74.6 11.7 74 10.9
2011-06-20 08:04:40 51°19.685 2°56.679 76.1 11.8 74 11
2011-06-20 08:04:44 51°19.689 2°56.698 75.6 11.8 74 11
2011-06-20 08:04:48 51°19.692 2°56.718 76.3 11.8 76 11
2011-06-20 08:04:54 51°19.697 2°56.749 77.3 11.8 74 10.8
2011-06-20 08:04:59 51°19.701 2°56.775 77.5 11.8 77 11
2011-06-20 08:05:04 51°19.705 2°56.8 77.8 11.8 75 10.9
2011-06-20 08:05:08 51°19.708 2°56.82 77.5 11.8 75 10.8
2011-06-20 08:05:14 51°19.714 2°56.85 76.6 11.8 74 10.8
2011-06-20 08:05:19 51°19.718 2°56.875 76.6 11.9 76 11.1
2011-06-20 08:05:24 51°19.723 2°56.901 76 11.9 72 11.1
2011-06-20 08:05:28 51°19.727 2°56.92 75.4 11.8 73 10.8
2011-06-20 08:05:34 51°19.733 2°56.95 75.3 11.8 71 10.9
2011-06-20 08:05:39 51°19.739 2°56.975 73.9 11.8 70 10.8
2011-06-20 08:05:44 51°19.745 2°56.999 72.9 11.8 70 11
2011-06-20 08:05:48 51°19.75 2°57.018 71.9 11.8 69 10.8
2011-06-20 08:05:54 51°19.756 2°57.048 72.3 11.8 68 10.8
2011-06-20 08:05:59 51°19.763 2°57.072 71.1 11.8 70 10.9
2011-06-20 08:06:04 51°19.769 2°57.096 71.4 11.7 68 10.9
2011-06-20 08:06:09 51°19.774 2°57.121 71.9 11.8 71 10.9
2011-06-20 08:06:15 51°19.781 2°57.151 73.2 11.8 70 10.7
2011-06-20 08:06:19 51°19.785 2°57.17 73.1 11.8 71 10.8
2011-06-20 08:06:24 51°19.791 2°57.195 73.7 11.8 71 10.7
2011-06-20 08:06:29 51°19.796 2°57.22 74.1 11.8 71 10.7
2011-06-20 08:06:35 51°19.801 2°57.25 74.8 11.8 74 10.9
2011-06-20 08:06:39 51°19.805 2°57.27 75.6 11.8 72 10.9
2011-06-20 08:06:44 51°19.81 2°57.295 75.2 11.7 72 10.7
2011-06-20 08:06:48 51°19.814 2°57.315 75.7 11.8 73 10.7
2011-06-20 08:06:54 51°19.82 2°57.345 76.1 11.9 73 10.8
2011-06-20 08:07:00 51°19.825 2°57.375 76.3 11.8 74 10.7
2011-06-20 08:07:04 51°19.828 2°57.395 77 11.7 74 10.8
2011-06-20 08:07:08 51°19.832 2°57.415 76.9 11.8 74 10.6
2011-06-20 08:07:14 51°19.837 2°57.445 76.8 11.8 73 10.7
2011-06-20 08:07:19 51°19.842 2°57.47 76.1 11.7 72 10.5
2011-06-20 08:07:24 51°19.847 2°57.495 75.3 11.8 72 10.6
2011-06-20 08:07:28 51°19.852 2°57.515 74.1 11.8 69 10.7
2011-06-20 08:07:34 51°19.859 2°57.544 72.8 11.7 70 10.8
2011-06-20 08:07:39 51°19.865 2°57.568 72.2 11.8 69 10.8
2011-06-20 08:07:44 51°19.871 2°57.592 72 11.9 68 10.5
2011-06-20 08:07:48 51°19.876 2°57.612 71.1 11.8 66 10.4
2011-06-20 08:07:54 51°19.884 2°57.641 70.3 11.8 68 10.6
2011-06-20 08:07:59 51°19.89 2°57.665 71.3 11.7 67 10.6
2011-06-20 08:08:04 51°19.896 2°57.689 70.8 11.8 68 10.7
2011-06-20 08:08:09 51°19.902 2°57.714 71.6 11.9 69 10.7
2011-06-20 08:08:15 51°19.909 2°57.743 71.8 12 68 10.7
2011-06-20 08:08:19 51°19.914 2°57.763 71.8 11.9 70 10.7
2011-06-20 08:08:24 51°19.92 2°57.788 72.2 11.8 70 10.8
2011-06-20 08:08:29 51°19.925 2°57.812 73 11.8 72 10.9
2011-06-20 08:08:35 51°19.931 2°57.842 74.1 11.8 71 10.6
2011-06-20 08:08:39 51°19.935 2°57.862 75.3 11.8 74 10.5
2011-06-20 08:08:44 51°19.94 2°57.887 75.6 11.8 73 10.6
2011-06-20 08:08:49 51°19.944 2°57.912 76.9 11.8 76 10.6
2011-06-20 08:08:55 51°19.95 2°57.942 76.6 11.8 73 10.5
2011-06-20 08:09:00 51°19.953 2°57.967 76.4 11.7 76 10.5
2011-06-20 08:09:04 51°19.957 2°57.987 77.5 11.7 74 10.3
2011-06-20 08:09:09 51°19.961 2°58.013 77.7 11.8 76 10.5
2011-06-20 08:09:14 51°19.965 2°58.038 77.3 11.7 74 10.7
2011-06-20 08:09:20 51°19.971 2°58.067 76.6 11.7 74 10.4
2011-06-20 08:09:24 51°19.974 2°58.087 76.5 11.8 74 10.6
2011-06-20 08:09:28 51°19.979 2°58.107 75.9 11.7 72 10.6
2011-06-20 08:09:34 51°19.984 2°58.137 74.8 11.7 73 10.4
2011-06-20 08:09:40 51°19.991 2°58.166 74.8 11.7 71 10.3
2011-06-20 08:09:44 51°19.996 2°58.186 73.4 11.7 69 10.4
2011-06-20 08:09:48 51°20.001 2°58.205 72.4 11.7 70 10.6
2011-06-20 08:09:54 51°20.007 2°58.234 72.3 11.7 69 10.3
2011-06-20 08:09:59 51°20.013 2°58.258 71.7 11.8 68 10.2
2011-06-20 08:10:04 51°20.019 2°58.283 71.5 11.8 69 10.6
2011-06-20 08:10:09 51°20.026 2°58.307 70.9 11.8 67 10.3
2011-06-20 08:10:15 51°20.033 2°58.336 71.7 11.8 69 10.3
2011-06-20 08:10:19 51°20.038 2°58.355 71.3 11.7 68 10.4
2011-06-20 08:10:24 51°20.043 2°58.38 71.8 11.8 70 10.4
2011-06-20 08:10:29 51°20.049 2°58.404 72 11.9 69 10.2
2011-06-20 08:10:34 51°20.054 2°58.429 72.4 11.8 72 10.2
2011-06-20 08:10:40 51°20.061 2°58.459 73.9 11.7 72 10.2
2011-06-20 08:10:44 51°20.064 2°58.479 75.3 11.8 74 10.2
2011-06-20 08:10:49 51°20.068 2°58.504 76.5 11.8 73 10.2
2011-06-20 08:10:55 51°20.074 2°58.534 76.5 11.8 75 10.4
2011-06-20 08:11:00 51°20.079 2°58.559 76.3 11.6 72 10.1
2011-06-20 08:11:04 51°20.082 2°58.579 76.8 11.7 76 10.4
2011-06-20 08:11:09 51°20.087 2°58.604 76.6 11.8 72 10.3
2011-06-20 08:11:14 51°20.091 2°58.629 76.4 11.7 75 10.1
2011-06-20 08:11:19 51°20.095 2°58.654 76.6 11.8 73 10.2
2011-06-20 08:11:24 51°20.1 2°58.679 75.9 11.7 72 10.1
2011-06-20 08:11:29 51°20.106 2°58.703 74.9 11.6 72 10.3
2011-06-20 08:11:34 51°20.111 2°58.728 74.5 11.6 72 10.2
2011-06-20 08:11:40 51°20.117 2°58.757 74.3 11.8 70 10.1
2011-06-20 08:11:44 51°20.122 2°58.776 72.6 11.7 68 10
2011-06-20 08:11:49 51°20.128 2°58.801 71.9 11.7 70 10.1
2011-06-20 08:11:54 51°20.134 2°58.825 72.4 11.7 68 10
2011-06-20 08:11:59 51°20.14 2°58.849 71.9 11.7 69 10
2011-06-20 08:12:04 51°20.145 2°58.873 72.7 11.7 70 10.2
2011-06-20 08:12:09 51°20.151 2°58.897 72.7 11.6 71 10
2011-06-20 08:12:14 51°20.156 2°58.922 74.1 11.7 71 10.1
2011-06-20 08:12:20 51°20.162 2°58.952 73.8 11.7 72 10
2011-06-20 08:12:24 51°20.165 2°58.971 74.7 11.5 74 9.9
2011-06-20 08:12:29 51°20.17 2°58.996 75.2 11.7 74 10.1
2011-06-20 08:12:34 51°20.175 2°59.021 76 11.8 74 10
2011-06-20 08:12:40 51°20.18 2°59.051 76.3 11.6 75 10.1
2011-06-20 08:12:44 51°20.183 2°59.07 77.2 11.5 76 10
2011-06-20 08:12:48 51°20.187 2°59.09 77.7 11.6 74 9.9
2011-06-20 08:12:54 51°20.192 2°59.12 77.2 11.7 75 9.8
2011-06-20 08:13:00 51°20.197 2°59.15 77.4 11.7 74 10
2011-06-20 08:13:04 51°20.2 2°59.17 76.8 11.5 76 10
2011-06-20 08:13:08 51°20.204 2°59.19 77.7 11.6 74 10.1
2011-06-20 08:13:14 51°20.21 2°59.219 76.4 11.6 72 10
2011-06-20 08:13:19 51°20.214 2°59.244 75.1 11.5 72 10
2011-06-20 08:13:24 51°20.22 2°59.268 73.7 11.6 70 9.8
2011-06-20 08:13:29 51°20.225 2°59.292 73.3 11.5 69 9.8
2011-06-20 08:13:35 51°20.233 2°59.32 71.7 11.5 68 9.9
2011-06-20 08:13:40 51°20.239 2°59.344 71.6 11.5 69 10
2011-06-20 08:13:44 51°20.244 2°59.363 71 11.6 67 10
2011-06-20 08:13:49 51°20.25 2°59.387 71 11.6 68 9.9
2011-06-20 08:13:54 51°20.256 2°59.41 70.9 11.5 67 10
2011-06-20 08:13:59 51°20.262 2°59.434 70.9 11.6 70 10
2011-06-20 08:14:04 51°20.268 2°59.458 71.5 11.5 66 9.8
2011-06-20 08:14:09 51°20.274 2°59.481 70.6 11.5 70 10
2011-06-20 08:14:15 51°20.282 2°59.51 71.3 11.5 66 9.8
2011-06-20 08:14:20 51°20.287 2°59.534 70.9 11.5 70 9.9
2011-06-20 08:14:24 51°20.291 2°59.553 72.2 11.5 70 9.9
2011-06-20 08:14:29 51°20.297 2°59.577 72.9 11.7 71 10.1
2011-06-20 08:14:34 51°20.302 2°59.602 73.6 11.5 72 9.9
2011-06-20 08:14:39 51°20.306 2°59.626 75.6 11.5 74 9.8
2011-06-20 08:14:44 51°20.31 2°59.651 76.5 11.6 74 9.8